Virtual Futura



 METAR AND TAF INFORMATION
METAR FOR ENAL
ADDS - METARS form results

(1547 UTC 19 June 2019)
Data provider http://aviationweather.gov/metar/data/
 
METAR text: ENAL 191520Z 04009KT 9999 FEW055 15/11 Q1009
Conditions at: ENAL (ALESUND/VIGRA , NO) observed 1520 UTC 19 June 2019
Temperature: 15.0°C (59°F)
Dewpoint: 11.0°C (52°F) [RH = 77%]
Pressure (altimeter): 29.79 inches Hg (1009.0 mb)
Winds: from the NE (40 degrees) at 10 MPH (9 knots; 4.6 m/s)
Visibility: 6 or more miles (10+ km)
Ceiling: at least 12,000 feet AGL
Clouds: few clouds at 5500 feet AGL
Weather: no significant weather observed at this time

METAR text: ENAL 191450Z 01008KT 330V040 9999 FEW055 16/11 Q1009
Conditions at: ENAL (ALESUND/VIGRA , NO) observed 1450 UTC 19 June 2019
Temperature: 16.0°C (61°F)
Dewpoint: 11.0°C (52°F) [RH = 72%]
Pressure (altimeter): 29.79 inches Hg (1009.0 mb)
Winds: from the N (10 degrees) at 9 MPH (8 knots; 4.1 m/s)
Visibility: 6 or more miles (10+ km)
Ceiling: at least 12,000 feet AGL
Clouds: few clouds at 5500 feet AGL
Weather: no significant weather observed at this time

Forecast for: ENAL (ALESUND/VIGRA , NO)
Text: TAF ENAL 191400Z 1915/1921 03008KT 9999 FEW045 SCT070
Forecast period: 1500 to 2100 UTC 19 June 2019
Forecast type: FROM: standard forecast or significant change
Winds: from the NNE (30 degrees) at 9 MPH (8 knots; 4.1 m/s)
Visibility: 6 or more miles 10+ km)
Ceiling: at least 12,000 feet AGL
Clouds: few clouds at 4500 feet AGL
scattered clouds at 7000 feet AGL
Weather: no significant weather forecast for this period

 AIRPORT MAP

 RUNWAY INFORMATION
Runway 07 Runway length 7592 ft Runway width 148 ft
Runway elevation 34 ft Runway displaced threshold 490 ft Runway heading 65
Runway 25 Runway length 7592 ft Runway width 148 ft
Runway elevation 48 ft Runway displaced threshold 755 ft Runway heading 245

 AIRPORT FREQUENCIES
Type ATIS Name ATIS Frequency 128.65 MHZ
Type TWR Name TWR Frequency 119.85 MHZ

 AIRPORT NEAR NAVIGATION AIDS
Type NDB Name Vigra Frequency 355 KHZ
Type TACAN Name Vigra Frequency 112400 KHZ
Type VOR-DME Name Vigra Frequency 115800 KHZ

Poltica de Cookies

Esta web utiliza cookies para obtener datos estadsticos de la navegacin de sus usuarios. Si continas navegando consideramos que aceptas su uso. Ms informacin X Cerrar